Latest Coastal Weather Observations for Wyndham Airport

IDD60701

Issued at 11:25 am CST Tuesday 2 September 2014 (issued every 10 minutes, with the page automatically refreshed every 10 minutes)

About coastal observations | Map of coastal stations | Coastal observations for NT | Marine services | Other Formats
Station Details ID: 001006 Name: WYNDHAM AERO Lat: -15.51 Lon: 128.15 Height: 3.8 m
Data from the previous 72 hours. | See also: Recent months for locations in Northern Territory
Date/Time
CST
Temp

°C
Wind Pressure Rain
since 9am
mm
Weather Cloud Vis
km
Sea
Height
m
Swell
Dir
 
Speed
knots
Gust
knots
hPa Trend Height
m
Period
s
Dir
02/11:00am 33.5 E 13 20 1015.9 - 0.0 - - - - - - -
02/10:30am 31.8 SSE 5 6 1016.2 - 0.0 - - - - - - -
02/10:00am 27.4 SSW 2 4 1016.3 - 0.0 - - - - - - -
02/09:30am 24.9 SW 5 6 1016.1 - 0.0 - - - - - - -
02/09:00am 23.1 SSW 5 6 1016.0 - 0.0 - - - - - - -
02/08:30am 20.5 WSW 3 4 1016.0 - 0.0 - - - - - - -
02/08:00am 19.6 W 3 5 1015.7 - 0.0 - - - - - - -
02/07:30am 16.1 NW 2 3 1015.4 - 0.0 - - - - - - -
02/07:00am 15.2 WSW 5 6 1015.0 - 0.0 - - - - - - -
02/06:30am 14.6 WNW 4 5 1014.8 - 0.0 - - - - - - -
02/06:00am 15.2 NW 4 5 1014.5 - 0.0 - - - - - - -
02/05:30am 14.8 W 4 5 1014.2 - 0.0 - - - - - - -
02/05:00am 15.5 WSW 3 4 1014.0 - 0.0 - - - - - - -
02/04:30am 17.4 NW 4 4 1013.8 - 0.0 - - - - - - -
02/04:00am 15.3 W 4 5 1013.9 - 0.0 - - - - - - -
02/03:30am 15.9 NW 4 5 1013.9 - 0.0 - - - - - - -
02/03:00am 15.5 WNW 3 4 1014.1 - 0.0 - - - - - - -
02/02:30am 14.8 CALM 0 1 1014.1 - 0.0 - - - - - - -
02/02:00am 16.5 E 1 3 1014.0 - 0.0 - - - - - - -
02/01:30am 17.5 E 5 6 1014.2 - 0.0 - - - - - - -
02/01:00am 18.8 ESE 7 7 1014.3 - 0.0 - - - - - - -
02/12:30am 17.8 ESE 6 7 1014.1 - 0.0 - - - - - - -
02/12:00am 18.2 E 6 6 1014.1 - 0.0 - - - - - - -
 
Date/Time
CST
Temp

°C
Wind Pressure Rain
since 9am
mm
Weather Cloud Vis
km
Sea
Height
m
Swell
Dir
 
Speed
knots
Gust
knots
hPa Trend Height
m
Period
s
Dir
01/11:30pm 17.7 E 5 6 1014.1 - 0.0 - - - - - - -
01/11:00pm 17.7 CALM 0 0 1013.9 - 0.0 - - - - - - -
01/10:30pm 19.0 S 4 5 1014.0 - 0.0 - - - - - - -
01/10:00pm 20.9 SW 4 5 1014.0 - 0.0 - - - - - - -
01/09:30pm 21.5 CALM 0 0 1014.0 - 0.0 - - - - - - -
01/09:00pm 22.8 SW 3 4 1013.6 - 0.0 - - - - - - -
01/08:30pm 25.1 CALM 0 3 1013.3 - 0.0 - - - - - - -
01/08:00pm 26.6 CALM 0 0 1013.0 - 0.0 - - - - - - -
01/07:30pm 28.8 N 8 11 1012.4 - 0.0 - - - - - - -
01/07:00pm 29.6 N 9 12 1012.0 - 0.0 - - - - - - -
01/06:30pm 31.0 N 9 13 1011.6 - 0.0 - - - - - - -
01/06:00pm 32.8 N 9 12 1011.2 - 0.0 - - - - - - -
01/05:30pm 35.1 E 7 13 1010.9 - 0.0 - - - - - - -
01/05:00pm 35.1 E 8 14 1010.8 - 0.0 - - - - - - -
01/04:30pm 35.7 E 7 11 1010.9 - 0.0 - - - - - - -
01/04:00pm 34.9 E 10 15 1011.2 - 0.0 - - - - - - -
01/03:30pm 35.4 ESE 9 18 1011.5 - 0.0 - - - - - - -
01/03:00pm 34.8 ESE 7 12 1011.8 - 0.0 - - - - - - -
01/02:30pm 35.1 ESE 8 15 1012.3 - 0.0 - - - - - - -
01/02:00pm 35.1 E 6 8 1013.0 - 0.0 - - - - - - -
01/01:30pm 34.1 NNE 8 11 1013.4 - 0.0 - - - - - - -
01/01:00pm 34.2 ESE 9 15 1014.0 - 0.0 - - - - - - -
01/12:30pm 33.8 ESE 9 14 1014.7 - 0.0 - - - - - - -
01/12:00pm 32.5 E 11 15 1015.3 - 0.0 - - - - - - -
01/11:30am 31.3 E 7 11 1015.7 - 0.0 - - - - - - -
01/11:00am 29.6 SE 5 8 1016.1 - 0.0 - - - - - - -
01/10:30am 27.3 WSW 4 6 1016.5 - 0.0 - - - - - - -
01/10:00am 25.3 SW 5 6 1016.5 - 0.0 - - - - - - -
01/09:30am 23.9 SSW 6 7 1016.4 - 0.0 - - - - - - -
01/09:00am 21.8 SW 5 6 1016.2 - 0.0 - - - - - - -
01/08:30am 20.6 WNW 4 5 1015.9 - 0.0 - - - - - - -
01/08:00am 17.6 WNW 5 5 1015.4 - 0.0 - - - - - - -
01/07:30am 14.2 NW 1 4 1015.1 - 0.0 - - - - - - -
01/07:00am 13.8 W 3 4 1014.6 - 0.0 - - - - - - -
01/06:30am 13.0 WSW 4 5 1014.3 - 0.0 - - - - - - -
01/06:00am 12.7 W 4 5 1013.8 - 0.0 - - - - - - -
01/05:30am 14.1 W 3 4 1013.5 - 0.0 - - - - - - -
01/05:00am 13.7 W 4 5 1013.3 - 0.0 - - - - - - -
01/04:30am 15.0 NW 4 5 1012.8 - 0.0 - - - - - - -
01/04:00am 14.2 W 4 5 1012.7 - 0.0 - - - - - - -
01/03:30am 14.8 WSW 3 3 1012.9 - 0.0 - - - - - - -
01/03:00am 14.5 WNW 3 4 1013.0 - 0.0 - - - - - - -
01/02:30am 14.8 SW 3 4 1013.0 - 0.0 - - - - - - -
01/02:00am 16.3 SSW 4 5 1012.9 - 0.0 - - - - - - -
01/01:30am 14.7 E 1 3 1012.9 - 0.0 - - - - - - -
01/01:00am 14.9 E 2 5 1012.9 - 0.0 - - - - - - -
01/12:30am 15.3 E 3 4 1012.9 - 0.0 - - - - - - -
01/12:00am 17.1 CALM 0 4 1013.1 - 0.0 - - - - - - -
 
Date/Time
CST
Temp

°C
Wind Pressure Rain
since 9am
mm
Weather Cloud Vis
km
Sea
Height
m
Swell
Dir
 
Speed
knots
Gust
knots
hPa Trend Height
m
Period
s
Dir
31/11:30pm 17.0 CALM 0 0 1013.0 - 0.0 - - - - - - -
31/11:00pm 18.7 E 3 4 1013.0 - 0.0 - - - - - - -
31/10:30pm 19.1 E 5 6 1013.2 - 0.0 - - - - - - -
31/10:00pm 19.8 CALM 0 0 1013.3 - 0.0 - - - - - - -
31/09:30pm 22.7 CALM 0 0 1013.1 - 0.0 - - - - - - -
31/09:00pm 21.7 NW 2 4 1013.0 - 0.0 - - - - - - -
31/08:30pm 25.4 S 3 4 1012.5 - 0.0 - - - - - - -
31/08:00pm 27.4 N 8 10 1012.1 - 0.0 - - - - - - -
31/07:30pm 27.7 N 8 11 1011.7 - 0.0 - - - - - - -
31/07:00pm 28.2 N 5 7 1011.5 - 0.0 - - - - - - -
31/06:30pm 31.4 E 7 10 1011.1 - 0.0 - - - - - - -
31/06:00pm 32.8 ENE 5 8 1011.0 - 0.0 - - - - - - -
31/05:30pm 33.3 E 5 7 1010.8 - 0.0 - - - - - - -
31/05:00pm 34.0 ESE 7 13 1010.7 - 0.0 - - - - - - -
31/04:30pm 34.3 E 7 13 1010.7 - 0.0 - - - - - - -
31/04:00pm 33.6 NE 6 10 1011.0 - 0.0 - - - - - - -
31/03:30pm 33.7 ESE 9 14 1011.4 - 0.0 - - - - - - -
31/03:00pm 33.4 ESE 8 13 1011.9 - 0.0 - - - - - - -
31/02:30pm 33.0 ENE 6 11 1012.3 - 0.0 - - - - - - -
31/02:00pm 33.5 ENE 6 9 1012.5 - 0.0 - - - - - - -
31/01:30pm 34.2 SE 7 12 1013.0 - 0.0 - - - - - - -
31/01:00pm 32.8 E 8 15 1013.5 - 0.0 - - - - - - -
31/12:30pm 32.9 ENE 12 15 1014.0 - 0.0 - - - - - - -
31/12:00pm 32.4 E 11 16 1014.5 - 0.0 - - - - - - -
31/11:30am 32.1 E 16 19 1015.1 - 0.0 - - - - - - -
31/11:00am 31.7 ENE 14 18 1015.2 - 0.0 - - - - - - -
31/10:30am 31.1 E 16 21 1015.5 - 0.0 - - - - - - -
31/10:00am 29.7 ESE 10 16 1015.6 - 0.0 - - - - - - -
31/09:30am 25.6 SW 4 5 1015.6 - 0.0 - - - - - - -
31/09:00am 22.8 SW 3 5 1015.6 - 0.0 - - - - - - -
31/08:30am 21.1 W 1 3 1015.4 - 0.0 - - - - - - -
31/08:00am 17.8 SW 3 4 1015.2 - 0.0 - - - - - - -
31/07:30am 13.3 SSW 4 6 1015.0 - 0.0 - - - - - - -
31/07:00am 11.8 CALM 0 0 1014.7 - 0.0 - - - - - - -
31/06:30am 12.2 CALM 0 0 1014.2 - 0.0 - - - - - - -
31/06:00am 12.6 W 1 4 1013.9 - 0.0 - - - - - - -
31/05:30am 13.0 CALM 0 0 1013.8 - 0.0 - - - - - - -
31/05:00am 13.4 CALM 0 0 1013.6 - 0.0 - - - - - - -
31/04:30am 12.7 CALM 0 0 1013.5 - 0.0 - - - - - - -
31/04:00am 12.7 CALM 0 0 1013.3 - 0.0 - - - - - - -
31/03:30am 13.5 CALM 0 0 1013.3 - 0.0 - - - - - - -
31/03:00am 14.9 CALM 0 0 1013.2 - 0.0 - - - - - - -
31/02:30am 15.4 WNW 3 4 1013.3 - 0.0 - - - - - - -
31/02:00am 15.2 W 4 5 1013.5 - 0.0 - - - - - - -
31/01:30am 15.4 CALM 0 0 1013.6 - 0.0 - - - - - - -
31/01:00am 14.8 ESE 3 3 1013.6 - 0.0 - - - - - - -
31/12:30am 15.6 CALM 0 0 1013.6 - 0.0 - - - - - - -
31/12:00am 16.8 CALM 0 0 1013.8 - 0.0 - - - - - - -
 
Date/Time
CST
Temp

°C
Wind Pressure Rain
since 9am
mm
Weather Cloud Vis
km
Sea
Height
m
Swell
Dir
 
Speed
knots
Gust
knots
hPa Trend Height
m
Period
s
Dir
30/11:30pm 18.0 W 1 4 1013.9 - 0.0 - - - - - - -
30/11:00pm 18.7 CALM 0 0 1013.9 - 0.0 - - - - - - -
30/10:30pm 19.5 NNW 2 3 1014.0 - 0.0 - - - - - - -
30/10:00pm 20.3 ENE 3 5 1013.9 - 0.0 - - - - - - -
30/09:30pm 23.7 E 6 7 1013.8 - 0.0 - - - - - - -
30/09:00pm 23.9 E 6 7 1013.7 - 0.0 - - - - - - -
30/08:30pm 23.7 E 5 6 1013.4 - 0.0 - - - - - - -
30/08:00pm 24.3 ESE 6 7 1013.1 - 0.0 - - - - - - -
30/07:30pm 25.5 ESE 7 8 1012.7 - 0.0 - - - - - - -
30/07:00pm 27.8 E 6 7 1012.3 - 0.0 - - - - - - -
30/06:30pm 30.6 E 5 7 1012.1 - 0.0 - - - - - - -
30/06:00pm 32.0 E 10 12 1011.9 - 0.0 - - - - - - -
30/05:30pm 32.5 E 7 10 1011.8 - 0.0 - - - - - - -
30/05:00pm 32.8 ESE 10 17 1011.7 - 0.0 - - - - - - -
30/04:30pm 33.2 E 10 15 1011.7 - 0.0 - - - - - - -
30/04:00pm 33.2 ESE 11 17 1011.8 - 0.0 - - - - - - -
30/03:30pm 33.4 SE 9 15 1012.0 - 0.0 - - - - - - -
30/03:00pm 33.4 ESE 8 14 1012.3 - 0.0 - - - - - - -
30/02:30pm 32.7 ESE 12 16 1013.0 - 0.0 - - - - - - -
30/02:00pm 32.5 ESE 13 21 1013.4 - 0.0 - - - - - - -
30/01:30pm 33.0 SE 14 22 1013.9 - 0.0 - - - - - - -
30/01:00pm 32.3 E 14 19 1014.5 - 0.0 - - - - - - -

Other Formats:

Comma delimited format used in spreadsheet applications
http://www.bom.gov.au/fwo/IDD60701/IDD60701.95214.axf

JavaScript Object Notation format (JSON) in row-major order
http://www.bom.gov.au/fwo/IDD60701/IDD60701.95214.json